Time;durP1;ratioP1;P1;durP2;ratioP2;P2;SDS_P1;SDS_P2;PMS_P1;PMS_P2;Temp;Humidity;BMP_temperature;BMP_pressure;BME280_temperature;BME280_humidity;BME280_pressure;Samples;Min_cycle;Max_cycle;Signal;HPM_P1;HPM_P2
2023/01/01 00:00:42;;;;;;;19.30;16.08;;;16.20;95.80;;;;;;6230140;28;20038;-82
2023/01/01 00:03:43;;;;;;;14.10;12.70;;;16.10;95.80;;;;;;6229304;28;20046;-81
2023/01/01 00:06:45;;;;;;;15.82;11.23;;;16.10;95.80;;;;;;6229296;28;20500;-81
2023/01/01 00:13:14;;;;;;;11.82;10.52;;;16.20;95.70;;;;;;6213544;28;20042;-80
2023/01/01 00:16:16;;;;;;;13.77;11.52;;;16.20;95.70;;;;;;6221090;28;20042;-81
2023/01/01 00:22:20;;;;;;;11.07;9.95;;;16.20;95.70;;;;;;6201467;28;20046;-86
2023/01/01 00:25:22;;;;;;;16.80;11.77;;;16.20;95.70;;;;;;6228060;28;20050;-86
2023/01/01 00:28:25;;;;;;;13.85;10.45;;;16.20;95.70;;;;;;6226921;28;20042;-87
2023/01/01 00:31:27;;;;;;;20.02;13.57;;;16.20;95.70;;;;;;6227650;28;20045;-86
2023/01/01 00:34:28;;;;;;;13.48;10.68;;;16.20;95.70;;;;;;6238356;28;20060;-87
2023/01/01 00:37:30;;;;;;;14.00;10.57;;;16.10;95.80;;;;;;6238499;28;20054;-87
2023/01/01 00:40:32;;;;;;;18.40;13.55;;;16.00;96.00;;;;;;6227860;28;20042;-85
2023/01/01 00:43:35;;;;;;;18.63;13.43;;;15.90;96.20;;;;;;6227675;28;20068;-87
2023/01/01 00:46:37;;;;;;;16.88;10.07;;;15.70;96.30;;;;;;6219233;28;20427;-86
2023/01/01 00:49:39;;;;;;;12.55;9.18;;;15.70;96.50;;;;;;6205678;28;20050;-86
2023/01/01 00:52:40;;;;;;;11.13;10.00;;;15.60;96.60;;;;;;6203049;28;20058;-86
2023/01/01 00:55:43;;;;;;;10.43;8.90;;;15.50;96.70;;;;;;6215938;28;20192;-85
2023/01/01 00:58:46;;;;;;;11.82;8.90;;;15.50;96.70;;;;;;6204546;28;20053;-84
2023/01/01 01:01:48;;;;;;;10.48;7.95;;;15.40;96.90;;;;;;6203723;28;20047;-85
2023/01/01 01:04:49;;;;;;;11.65;7.22;;;15.30;97.10;;;;;;6202319;28;20435;-85
2023/01/01 01:07:51;;;;;;;9.32;7.55;;;15.10;97.20;;;;;;6201748;28;20054;-88
2023/01/01 01:10:53;;;;;;;9.63;7.10;;;15.10;97.30;;;;;;6203346;28;20047;-87
2023/01/01 01:13:57;;;;;;;11.95;8.13;;;14.90;97.50;;;;;;6207608;28;20408;-86
2023/01/01 01:16:58;;;;;;;8.65;7.07;;;14.90;97.70;;;;;;6220315;28;20056;-87
2023/01/01 01:20:00;;;;;;;9.15;7.22;;;14.70;97.80;;;;;;6156384;28;20069;-87
2023/01/01 01:23:12;;;;;;;10.75;7.38;;;14.70;98.00;;;;;;6205503;28;20046;-87
2023/01/01 01:26:16;;;;;;;11.75;6.80;;;14.60;98.20;;;;;;6205996;28;20419;-84
2023/01/01 01:29:19;;;;;;;7.88;6.57;;;14.50;98.40;;;;;;6204471;28;20046;-87
2023/01/01 01:32:20;;;;;;;10.65;6.50;;;14.40;98.50;;;;;;6208280;28;20046;-87
2023/01/01 01:35:22;;;;;;;7.82;6.20;;;14.40;98.70;;;;;;6229783;28;20049;-86
2023/01/01 01:38:24;;;;;;;7.70;6.07;;;14.30;98.90;;;;;;6229294;28;20050;-86
2023/01/01 01:41:27;;;;;;;7.90;6.03;;;14.30;99.00;;;;;;6230107;28;20462;-87
2023/01/01 01:44:55;;;;;;;7.97;6.35;;;14.30;99.10;;;;;;6233107;28;20054;-87
2023/01/01 01:47:58;;;;;;;10.38;6.22;;;14.30;99.20;;;;;;6237976;28;20118;-86
2023/01/01 01:51:00;;;;;;;8.68;6.63;;;14.30;99.20;;;;;;6239884;28;20057;-87
2023/01/01 01:54:06;;;;;;;12.25;5.68;;;14.30;99.30;;;;;;6240666;28;20046;-88
2023/01/01 01:57:11;;;;;;;8.02;6.05;;;14.30;99.40;;;;;;6226974;28;20046;-88
2023/01/01 02:00:15;;;;;;;5.10;4.57;;;14.30;99.50;;;;;;6215480;28;20046;-86
2023/01/01 02:03:21;;;;;;;7.68;5.13;;;14.40;99.60;;;;;;6217113;28;20038;-87
2023/01/01 02:06:23;;;;;;;5.68;4.68;;;14.60;99.50;;;;;;6221744;28;20046;-86
2023/01/01 02:09:25;;;;;;;4.75;3.78;;;14.70;99.30;;;;;;6222794;28;20121;-87
2023/01/01 02:12:27;;;;;;;5.32;3.53;;;14.70;99.30;;;;;;6223292;28;20056;-88
2023/01/01 02:15:36;;;;;;;5.78;3.90;;;14.80;99.30;;;;;;6222400;28;20053;-87
2023/01/01 02:18:44;;;;;;;6.57;3.33;;;15.00;99.10;;;;;;6218401;28;20056;-87
2023/01/01 02:21:59;;;;;;;4.25;3.35;;;15.00;99.00;;;;;;6217900;28;20062;-86
2023/01/01 02:25:17;;;;;;;4.07;3.20;;;15.10;98.80;;;;;;6216120;28;20514;-85
2023/01/01 02:28:33;;;;;;;7.60;3.63;;;15.30;98.50;;;;;;6213558;28;20066;-86
2023/01/01 02:31:40;;;;;;;4.82;3.30;;;15.40;98.30;;;;;;6214577;28;20061;-87
2023/01/01 02:34:46;;;;;;;5.57;3.97;;;15.60;98.10;;;;;;6214198;28;20057;-86
2023/01/01 02:37:50;;;;;;;4.68;4.18;;;15.60;97.90;;;;;;6212897;28;20061;-88
2023/01/01 02:40:55;;;;;;;8.73;5.32;;;15.80;97.70;;;;;;6214413;28;20581;-85
2023/01/01 02:43:58;;;;;;;7.72;3.80;;;15.80;97.50;;;;;;6213071;28;20504;-87
2023/01/01 02:47:08;;;;;;;7.07;3.78;;;15.90;97.30;;;;;;6211691;28;20048;-86
2023/01/01 02:50:14;;;;;;;6.65;3.95;;;15.90;97.30;;;;;;6211495;28;20054;-87
2023/01/01 02:53:27;;;;;;;5.40;4.20;;;15.80;97.30;;;;;;6216011;28;20042;-86
2023/01/01 02:56:38;;;;;;;8.43;3.63;;;15.90;97.10;;;;;;6218194;28;20046;-86
2023/01/01 03:03:25;;;;;;;5.38;3.83;;;15.90;96.90;;;;;;6216644;28;20042;-87
2023/01/01 03:06:37;;;;;;;4.93;3.60;;;16.00;96.80;;;;;;6215474;28;20065;-85
2023/01/01 03:09:51;;;;;;;6.88;3.65;;;15.90;96.70;;;;;;6206815;28;20140;-86
2023/01/01 03:12:57;;;;;;;5.43;3.40;;;15.90;96.70;;;;;;6213651;28;20042;-86
2023/01/01 03:16:04;;;;;;;5.85;3.60;;;15.80;96.60;;;;;;6233019;28;20641;-87
2023/01/01 03:19:11;;;;;;;6.80;3.63;;;15.90;96.50;;;;;;6230537;28;20038;-85
2023/01/01 03:22:16;;;;;;;8.55;3.28;;;15.80;96.40;;;;;;6231319;28;20046;-85
2023/01/01 03:25:22;;;;;;;6.10;2.80;;;15.80;96.30;;;;;;6231137;28;20133;-86
2023/01/01 03:28:28;;;;;;;4.85;3.00;;;15.80;96.20;;;;;;6229709;28;20066;-86
2023/01/01 03:31:33;;;;;;;4.97;2.80;;;15.80;96.00;;;;;;6229672;28;20046;-86
2023/01/01 03:34:40;;;;;;;3.55;2.40;;;15.90;95.90;;;;;;6232427;28;20052;-84
2023/01/01 03:37:45;;;;;;;3.58;3.17;;;15.90;95.70;;;;;;6232366;28;20050;-86
2023/01/01 03:40:50;;;;;;;3.28;2.45;;;15.80;95.50;;;;;;6233200;28;20068;-86
2023/01/01 03:43:57;;;;;;;5.55;2.63;;;15.90;95.30;;;;;;6233929;28;20054;-86
2023/01/01 03:47:01;;;;;;;5.82;2.80;;;15.90;95.20;;;;;;6233287;28;20046;-86
2023/01/01 03:50:04;;;;;;;4.28;2.47;;;15.90;95.00;;;;;;6231526;28;20403;-86
2023/01/01 03:53:10;;;;;;;8.38;6.00;;;15.90;94.70;;;;;;6233258;28;20050;-87
2023/01/01 03:56:16;;;;;;;11.23;7.22;;;15.80;94.70;;;;;;6233305;28;20050;-86
2023/01/01 03:59:24;;;;;;;10.85;8.43;;;15.90;94.60;;;;;;6221471;28;20507;-86
2023/01/01 04:02:31;;;;;;;2.58;1.73;;;16.00;94.20;;;;;;6232435;28;20064;-86
2023/01/01 04:05:38;;;;;;;6.93;5.88;;;16.10;94.10;;;;;;6233063;28;20064;-85
2023/01/01 04:08:40;;;;;;;4.38;3.28;;;16.10;93.80;;;;;;6230973;28;20060;-86
2023/01/01 04:12:04;;;;;;;23.92;16.50;;;16.10;94.00;;;;;;6233773;28;20188;-87
2023/01/01 04:15:06;;;;;;;16.05;12.05;;;16.10;93.60;;;;;;6233826;28;20042;-86
2023/01/01 04:18:09;;;;;;;4.78;2.58;;;16.10;93.60;;;;;;6230852;28;20050;-86
2023/01/01 04:21:12;;;;;;;3.15;2.22;;;16.00;93.60;;;;;;6232848;28;20048;-86
2023/01/01 04:24:14;;;;;;;40.95;35.35;;;16.10;93.60;;;;;;6240248;28;20052;-87
2023/01/01 04:27:17;;;;;;;9.57;6.50;;;16.00;93.50;;;;;;6235823;28;20042;-85
2023/01/01 04:30:19;;;;;;;2.55;1.35;;;15.90;93.60;;;;;;6232555;28;20045;-87
2023/01/01 04:33:22;;;;;;;4.10;1.58;;;16.00;93.70;;;;;;6233005;28;20048;-87
2023/01/01 04:36:23;;;;;;;1.80;1.67;;;15.90;93.60;;;;;;6232681;28;20060;-86
2023/01/01 04:39:25;;;;;;;5.90;2.67;;;15.90;93.60;;;;;;6231198;28;20067;-87
2023/01/01 04:42:27;;;;;;;4.72;2.08;;;15.90;93.60;;;;;;6232448;28;20045;-85
2023/01/01 04:45:28;;;;;;;6.15;3.30;;;15.90;93.80;;;;;;6232598;28;20053;-87
2023/01/01 04:48:32;;;;;;;4.80;1.77;;;15.90;93.60;;;;;;6231864;28;20060;-86
2023/01/01 04:51:33;;;;;;;5.53;2.80;;;15.90;93.60;;;;;;6231754;28;20050;-87
2023/01/01 04:54:35;;;;;;;2.95;1.83;;;15.90;93.50;;;;;;6232346;28;20386;-86
2023/01/01 04:57:37;;;;;;;4.25;1.67;;;15.90;93.50;;;;;;6231965;28;20045;-87
2023/01/01 05:00:38;;;;;;;10.73;7.70;;;15.90;93.50;;;;;;6209985;28;20401;-85
2023/01/01 05:03:41;;;;;;;4.88;3.15;;;15.80;93.40;;;;;;6207137;28;20052;-85
2023/01/01 05:06:43;;;;;;;14.02;10.35;;;15.80;93.50;;;;;;6206950;28;20157;-86
2023/01/01 05:09:45;;;;;;;8.15;2.78;;;15.80;93.50;;;;;;6205616;28;20082;-85
2023/01/01 05:12:47;;;;;;;7.25;2.00;;;15.90;93.50;;;;;;6207765;28;20042;-86
2023/01/01 05:15:48;;;;;;;4.18;1.92;;;15.90;93.40;;;;;;6207456;28;20061;-86
2023/01/01 05:18:52;;;;;;;3.42;2.20;;;15.90;93.40;;;;;;6205857;28;20046;-86
2023/01/01 05:21:54;;;;;;;3.80;2.22;;;15.90;93.40;;;;;;6229909;28;20054;-86
2023/01/01 05:24:56;;;;;;;3.33;2.10;;;15.80;93.40;;;;;;6231259;28;20136;-86
2023/01/01 05:27:58;;;;;;;4.43;2.55;;;15.80;93.50;;;;;;6231021;28;20042;-85
2023/01/01 05:30:59;;;;;;;2.85;2.28;;;15.80;93.50;;;;;;6231515;28;20057;-86
2023/01/01 05:34:04;;;;;;;7.15;3.17;;;15.80;93.50;;;;;;6240665;28;20064;-86
2023/01/01 05:37:05;;;;;;;3.58;2.10;;;15.80;93.40;;;;;;6240921;28;20127;-86
2023/01/01 05:40:08;;;;;;;1.95;1.80;;;15.90;93.40;;;;;;6239268;28;20050;-86
2023/01/01 05:43:10;;;;;;;3.13;2.17;;;15.80;93.30;;;;;;6236365;28;20048;-85
2023/01/01 05:46:14;;;;;;;2.15;1.90;;;15.80;93.40;;;;;;6240474;28;20415;-87
2023/01/01 05:49:19;;;;;;;2.97;2.13;;;15.70;93.50;;;;;;6241556;28;20034;-86
2023/01/01 05:52:23;;;;;;;3.83;1.65;;;15.70;93.60;;;;;;6242952;28;20049;-87
2023/01/01 05:55:25;;;;;;;3.90;1.80;;;15.60;93.70;;;;;;6242345;28;20045;-86
2023/01/01 05:58:29;;;;;;;5.13;1.90;;;15.60;93.70;;;;;;6242428;28;20126;-87
2023/01/01 06:01:31;;;;;;;4.20;1.70;;;15.50;93.80;;;;;;6241974;28;20065;-86
2023/01/01 06:04:36;;;;;;;3.25;1.95;;;15.50;93.80;;;;;;6242373;28;20057;-85
2023/01/01 06:18:38;;;;;;;5.82;2.47;;;15.40;94.00;;;;;;6155027;28;20056;-86
2023/01/01 06:21:41;;;;;;;4.60;2.35;;;15.40;94.00;;;;;;6225925;22;20050;-81
2023/01/01 06:24:43;;;;;;;5.00;1.88;;;15.30;94.00;;;;;;6227659;28;20408;-81
2023/01/01 06:27:45;;;;;;;5.45;1.88;;;15.30;94.10;;;;;;6227496;28;20057;-81
2023/01/01 06:30:46;;;;;;;1.58;1.38;;;15.30;94.20;;;;;;6227261;28;20283;-80
2023/01/01 06:33:49;;;;;;;2.40;1.80;;;15.30;94.20;;;;;;6210484;28;20053;-80
2023/01/01 06:36:52;;;;;;;3.58;2.42;;;15.30;94.10;;;;;;6209870;28;20125;-81
2023/01/01 06:39:54;;;;;;;5.68;1.60;;;15.30;94.20;;;;;;6209132;28;20057;-80
2023/01/01 06:42:55;;;;;;;6.78;1.90;;;15.30;94.20;;;;;;6209729;28;20057;-79
2023/01/01 06:46:02;;;;;;;5.05;1.98;;;15.30;94.10;;;;;;6209249;28;20054;-79
2023/01/01 06:49:06;;;;;;;8.90;2.50;;;15.30;94.20;;;;;;6207955;28;20093;-80
2023/01/01 06:52:08;;;;;;;8.80;2.65;;;15.30;94.10;;;;;;6222263;28;20062;-80
2023/01/01 06:55:10;;;;;;;3.20;2.22;;;15.40;94.20;;;;;;6231539;28;20515;-79
2023/01/01 06:58:12;;;;;;;13.05;3.20;;;15.40;94.10;;;;;;6231896;28;20054;-79
2023/01/01 07:01:15;;;;;;;7.75;1.90;;;15.40;94.10;;;;;;6221302;28;20057;-80
2023/01/01 07:04:17;;;;;;;1.98;1.73;;;15.40;94.30;;;;;;6224916;28;20049;-78
2023/01/01 07:07:20;;;;;;;8.70;6.93;;;15.40;94.00;;;;;;6225228;28;20518;-79
2023/01/01 07:10:22;;;;;;;10.13;6.18;;;15.30;94.00;;;;;;6225436;28;20502;-79
2023/01/01 07:13:24;;;;;;;34.15;21.42;;;15.30;94.00;;;;;;6225626;28;20046;-78
2023/01/01 07:16:26;;;;;;;7.78;4.43;;;15.20;94.10;;;;;;6227799;28;20049;-79
2023/01/01 07:19:28;;;;;;;16.33;13.63;;;15.20;94.10;;;;;;6229136;28;20053;-79
2023/01/01 07:22:31;;;;;;;22.42;20.17;;;15.20;94.20;;;;;;6213138;28;20129;-79
2023/01/01 07:25:32;;;;;;;9.77;8.02;;;15.20;94.20;;;;;;6209417;28;20074;-79
2023/01/01 07:28:34;;;;;;;10.93;9.77;;;15.10;94.30;;;;;;6208713;28;20054;-80
2023/01/01 07:31:37;;;;;;;8.93;6.97;;;15.10;94.30;;;;;;6207973;28;20527;-80
2023/01/01 07:34:39;;;;;;;15.02;13.93;;;15.10;94.40;;;;;;6208692;28;20050;-79
2023/01/01 07:37:42;;;;;;;10.23;8.98;;;15.00;94.60;;;;;;6205673;28;20051;-79
2023/01/01 07:40:43;;;;;;;5.75;3.05;;;14.80;94.80;;;;;;6204616;28;20050;-79
2023/01/01 07:43:45;;;;;;;6.18;3.65;;;14.80;95.00;;;;;;6207093;28;20046;-81
2023/01/01 07:46:47;;;;;;;4.05;2.88;;;14.70;95.20;;;;;;6208516;28;20051;-79
2023/01/01 07:49:49;;;;;;;6.05;2.25;;;14.60;95.30;;;;;;6207755;28;20060;-80
2023/01/01 07:52:52;;;;;;;4.95;1.80;;;14.60;95.50;;;;;;6207037;28;20043;-80
2023/01/01 07:55:53;;;;;;;3.67;2.40;;;14.50;95.60;;;;;;6206512;28;20046;-79
2023/01/01 07:58:55;;;;;;;5.05;1.98;;;14.50;95.70;;;;;;6205362;28;20050;-79
2023/01/01 08:01:57;;;;;;;3.88;2.50;;;14.40;95.90;;;;;;6210232;28;20049;-80
2023/01/01 08:04:59;;;;;;;6.28;2.22;;;14.40;96.10;;;;;;6205734;28;20047;-79
2023/01/01 08:08:02;;;;;;;2.30;1.90;;;14.40;96.30;;;;;;6205771;28;20046;-81
2023/01/01 08:11:04;;;;;;;8.77;3.22;;;14.30;96.40;;;;;;6207753;28;20048;-79
2023/01/01 08:14:06;;;;;;;5.78;3.22;;;14.30;96.50;;;;;;6207134;28;20051;-81
2023/01/01 08:17:07;;;;;;;4.72;2.30;;;14.30;96.70;;;;;;6210924;28;20047;-80
2023/01/01 08:20:10;;;;;;;8.43;4.25;;;14.30;96.90;;;;;;6210544;28;20047;-80
2023/01/01 08:23:13;;;;;;;6.85;6.28;;;14.40;97.10;;;;;;6210408;28;20105;-80
2023/01/01 08:26:16;;;;;;;9.13;4.13;;;14.40;97.20;;;;;;6213066;28;20130;-80
2023/01/01 08:29:17;;;;;;;7.43;5.35;;;14.50;97.30;;;;;;6210586;28;20046;-80
2023/01/01 08:32:19;;;;;;;6.43;4.05;;;14.50;97.40;;;;;;6210457;28;20042;-80
2023/01/01 08:35:21;;;;;;;6.40;4.68;;;14.60;97.50;;;;;;6211133;28;20042;-80
2023/01/01 08:38:24;;;;;;;6.68;3.00;;;14.60;97.50;;;;;;6210693;28;20034;-80
2023/01/01 08:41:25;;;;;;;7.10;3.72;;;14.80;97.70;;;;;;6212532;28;20472;-81
2023/01/01 08:44:27;;;;;;;4.40;2.97;;;14.90;97.70;;;;;;6212310;28;20042;-80
2023/01/01 08:47:29;;;;;;;7.43;3.33;;;14.90;97.80;;;;;;6211340;28;20042;-80
2023/01/01 08:50:31;;;;;;;5.85;2.95;;;15.10;97.90;;;;;;6211836;28;20732;-80
2023/01/01 08:53:34;;;;;;;5.40;4.82;;;15.20;97.90;;;;;;6225037;28;20050;-80
2023/01/01 08:56:36;;;;;;;4.43;3.78;;;15.40;97.90;;;;;;6234173;28;20044;-80
2023/01/01 08:59:38;;;;;;;4.25;3.40;;;15.50;97.70;;;;;;6232692;28;20046;-79
2023/01/01 09:02:39;;;;;;;5.75;4.55;;;15.60;97.60;;;;;;6233547;28;20128;-80
2023/01/01 09:05:44;;;;;;;7.75;3.47;;;15.70;97.50;;;;;;6228812;28;20065;-80
2023/01/01 09:08:48;;;;;;;5.95;3.22;;;15.70;97.30;;;;;;6231301;28;20084;-79
2023/01/01 09:11:54;;;;;;;8.85;3.10;;;15.80;97.10;;;;;;6231427;28;20045;-79
2023/01/01 09:14:55;;;;;;;10.00;5.97;;;15.90;97.00;;;;;;6232646;28;20050;-79
2023/01/01 09:17:57;;;;;;;25.67;16.45;;;15.90;96.80;;;;;;6232362;28;20519;-80
2023/01/01 09:20:59;;;;;;;89.45;46.22;;;16.00;96.80;;;;;;6233084;28;20046;-79
2023/01/01 09:24:02;;;;;;;51.72;38.72;;;16.10;96.80;;;;;;6231647;28;20060;-80
2023/01/01 09:27:04;;;;;;;9.05;6.75;;;16.40;96.50;;;;;;6229018;28;20056;-80
2023/01/01 09:30:06;;;;;;;11.70;4.35;;;16.70;95.90;;;;;;6206601;28;20064;-79
2023/01/01 09:33:08;;;;;;;5.90;3.75;;;17.00;95.50;;;;;;6208798;28;20046;-80
2023/01/01 09:36:14;;;;;;;3.55;2.95;;;17.30;94.70;;;;;;6209490;28;20052;-80
2023/01/01 09:39:17;;;;;;;5.70;2.08;;;17.50;94.20;;;;;;6208645;28;20073;-80
2023/01/01 09:42:30;;;;;;;5.22;3.65;;;17.60;94.00;;;;;;6208220;28;20066;-79
2023/01/01 09:45:37;;;;;;;7.32;3.58;;;17.80;94.00;;;;;;6208731;28;20054;-80
2023/01/01 09:48:48;;;;;;;4.68;2.35;;;18.00;93.90;;;;;;6205222;28;20054;-80
2023/01/01 09:51:57;;;;;;;6.50;3.10;;;18.20;94.00;;;;;;6199630;28;20049;-79
2023/01/01 09:55:03;;;;;;;6.10;4.72;;;18.40;93.80;;;;;;6226976;28;20456;-79
2023/01/01 09:58:05;;;;;;;5.88;2.85;;;18.60;93.60;;;;;;6215328;28;20056;-79
2023/01/01 10:01:15;;;;;;;17.27;3.15;;;18.80;93.20;;;;;;6228940;28;20534;-80
2023/01/01 10:04:35;;;;;;;3.95;1.80;;;18.90;92.90;;;;;;6222376;28;20041;-80
2023/01/01 10:07:45;;;;;;;8.25;3.10;;;19.10;92.20;;;;;;6212488;28;20054;-81
2023/01/01 10:10:55;;;;;;;8.10;3.40;;;19.20;92.00;;;;;;6206673;28;20365;-79
2023/01/01 10:13:59;;;;;;;5.25;2.33;;;19.40;91.50;;;;;;6206369;28;20050;-80
2023/01/01 10:17:04;;;;;;;9.10;3.40;;;19.50;91.20;;;;;;6206634;28;20058;-83
2023/01/01 10:20:14;;;;;;;8.35;2.80;;;19.70;90.60;;;;;;6206429;28;20042;-80
2023/01/01 10:23:19;;;;;;;8.23;3.42;;;19.70;88.90;;;;;;6225368;28;20518;-80
2023/01/01 10:26:25;;;;;;;8.77;2.63;;;19.70;89.40;;;;;;6228487;28;20061;-79
2023/01/01 10:29:35;;;;;;;8.48;2.72;;;19.80;88.90;;;;;;6232394;28;20049;-83
2023/01/01 10:32:37;;;;;;;5.15;1.90;;;20.00;87.50;;;;;;6233701;28;20053;-80
2023/01/01 10:35:44;;;;;;;6.03;4.10;;;20.20;86.60;;;;;;6234196;28;20042;-81
2023/01/01 10:38:46;;;;;;;3.75;2.03;;;20.30;85.70;;;;;;6233562;28;20049;-81
2023/01/01 10:41:50;;;;;;;5.35;2.17;;;20.50;84.80;;;;;;6237811;28;20060;-81
2023/01/01 10:44:52;;;;;;;5.72;2.92;;;20.40;84.10;;;;;;6233536;28;20050;-80
2023/01/01 10:48:12;;;;;;;7.88;2.22;;;20.60;83.40;;;;;;6233515;28;20052;-81
2023/01/01 10:51:19;;;;;;;6.13;2.35;;;20.70;82.30;;;;;;6237136;28;20050;-80
2023/01/01 10:54:32;;;;;;;5.63;2.67;;;20.60;81.00;;;;;;6228453;28;20502;-82
2023/01/01 10:57:37;;;;;;;7.28;2.47;;;20.40;80.70;;;;;;6233850;28;20065;-80
2023/01/01 11:00:39;;;;;;;7.03;2.15;;;20.30;80.60;;;;;;6234989;28;20046;-81
2023/01/01 11:03:59;;;;;;;10.35;5.65;;;20.10;80.60;;;;;;6239641;28;20641;-81
2023/01/01 11:07:06;;;;;;;6.95;3.30;;;20.00;80.90;;;;;;6213483;28;20527;-79
2023/01/01 11:10:17;;;;;;;9.13;3.33;;;19.90;81.00;;;;;;6203370;28;20046;-80
2023/01/01 11:13:21;;;;;;;9.63;3.25;;;19.90;81.20;;;;;;6206285;28;20049;-80
2023/01/01 11:16:24;;;;;;;7.82;2.38;;;19.90;80.50;;;;;;6206884;28;20054;-80
2023/01/01 11:19:30;;;;;;;6.35;2.40;;;19.90;80.40;;;;;;6206237;28;20053;-80
2023/01/01 11:22:41;;;;;;;3.65;2.00;;;20.10;80.00;;;;;;6210070;28;20058;-81
2023/01/01 11:25:57;;;;;;;11.07;2.60;;;20.40;78.90;;;;;;6233668;28;20061;-82
2023/01/01 11:29:02;;;;;;;9.90;2.50;;;20.90;77.50;;;;;;6218619;28;20043;-81
2023/01/01 11:32:07;;;;;;;5.47;2.03;;;21.10;76.80;;;;;;6206980;28;20046;-82
2023/01/01 11:35:18;;;;;;;9.43;2.40;;;21.50;76.20;;;;;;6208083;28;20049;-81
2023/01/01 11:38:22;;;;;;;3.92;2.22;;;21.70;74.30;;;;;;6207036;28;20046;-81
2023/01/01 11:41:24;;;;;;;7.40;6.60;;;21.90;73.80;;;;;;6207998;28;20050;-81
2023/01/01 11:44:33;;;;;;;4.65;2.50;;;22.10;73.00;;;;;;6207580;28;20492;-80
2023/01/01 11:47:38;;;;;;;4.32;3.50;;;22.30;71.90;;;;;;6205931;28;20046;-83
2023/01/01 11:50:41;;;;;;;8.15;3.53;;;22.00;71.80;;;;;;6209100;28;20158;-82
2023/01/01 11:53:43;;;;;;;6.60;2.05;;;21.80;71.50;;;;;;6219432;28;20042;-82
2023/01/01 11:56:46;;;;;;;15.15;2.35;;;21.70;71.20;;;;;;6229686;28;20050;-79
2023/01/01 11:59:54;;;;;;;6.38;3.08;;;21.60;70.20;;;;;;6230932;28;20046;-81
2023/01/01 12:03:00;;;;;;;9.75;4.50;;;21.60;70.10;;;;;;6223848;28;20043;-81
2023/01/01 12:06:07;;;;;;;7.50;2.53;;;21.80;69.70;;;;;;6222565;28;20046;-81
2023/01/01 12:09:13;;;;;;;3.50;2.72;;;21.80;69.40;;;;;;6209649;28;20057;-81
2023/01/01 12:12:23;;;;;;;7.07;2.22;;;21.90;68.90;;;;;;6224267;28;20080;-80
2023/01/01 12:15:33;;;;;;;6.25;3.35;;;21.70;68.70;;;;;;6217578;28;20054;-80
2023/01/01 12:18:41;;;;;;;10.93;2.60;;;21.70;68.40;;;;;;6213105;28;20051;-80
2023/01/01 12:21:46;;;;;;;7.53;2.72;;;21.70;68.70;;;;;;6261267;22;20046;-86
2023/01/01 12:24:51;;;;;;;6.93;2.38;;;21.90;68.10;;;;;;6235943;28;20487;-84
2023/01/01 12:28:03;;;;;;;4.40;3.08;;;22.00;67.90;;;;;;6243486;28;20061;-87
2023/01/01 12:31:15;;;;;;;5.50;2.40;;;22.00;67.90;;;;;;6241558;28;20060;-86
2023/01/01 12:34:21;;;;;;;11.63;2.70;;;21.50;67.70;;;;;;6224016;28;20049;-87
2023/01/01 12:37:34;;;;;;;4.78;2.85;;;21.10;69.30;;;;;;6222960;28;20046;-85
2023/01/01 12:40:42;;;;;;;6.78;2.10;;;20.90;69.50;;;;;;6216086;28;20499;-87
2023/01/01 12:43:53;;;;;;;5.88;2.40;;;20.60;69.40;;;;;;6217714;28;20045;-85
2023/01/01 12:47:01;;;;;;;14.75;3.47;;;20.40;70.00;;;;;;6223744;28;20046;-84
2023/01/01 12:50:11;;;;;;;7.10;2.42;;;20.20;70.60;;;;;;6227946;28;20137;-84
2023/01/01 12:53:26;;;;;;;8.25;2.83;;;20.10;71.30;;;;;;6214451;28;20077;-84
2023/01/01 12:56:33;;;;;;;3.45;2.25;;;20.00;70.90;;;;;;6199544;28;20054;-85
2023/01/01 12:59:39;;;;;;;8.30;2.15;;;19.80;70.90;;;;;;6205042;28;20081;-85
2023/01/01 13:02:52;;;;;;;7.95;3.17;;;19.70;71.30;;;;;;6201642;28;20046;-85
2023/01/01 13:05:56;;;;;;;5.97;2.83;;;19.70;71.30;;;;;;6204969;28;20065;-85
2023/01/01 13:09:04;;;;;;;4.43;2.05;;;19.70;71.20;;;;;;6201876;28;20508;-85
2023/01/01 13:12:10;;;;;;;13.30;3.42;;;19.50;70.80;;;;;;6202953;28;20140;-85
2023/01/01 13:15:47;;;;;;;6.68;2.13;;;19.50;70.90;;;;;;6202823;28;20064;-84
2023/01/01 13:18:50;;;;;;;8.18;2.55;;;19.60;70.90;;;;;;6202464;28;20050;-86
2023/01/01 13:21:52;;;;;;;13.45;4.43;;;19.90;70.90;;;;;;6201760;28;20054;-86
2023/01/01 13:25:05;;;;;;;6.97;3.15;;;20.00;70.50;;;;;;6202671;28;20038;-86
2023/01/01 13:28:13;;;;;;;8.82;2.72;;;20.10;70.10;;;;;;6201129;28;20427;-85
2023/01/01 13:31:15;;;;;;;9.13;4.07;;;20.10;70.40;;;;;;6195153;28;20053;-85
2023/01/01 13:34:37;;;;;;;6.80;1.83;;;20.10;70.40;;;;;;6178450;28;20050;-84
2023/01/01 13:37:48;;;;;;;6.28;2.20;;;19.90;70.00;;;;;;6177245;28;20054;-85
2023/01/01 13:40:51;;;;;;;6.78;2.45;;;19.90;70.50;;;;;;6179686;28;20055;-86
2023/01/01 13:43:54;;;;;;;7.63;3.15;;;19.70;70.60;;;;;;6182780;28;20039;-84
2023/01/01 13:47:13;;;;;;;11.27;2.42;;;19.70;71.60;;;;;;6186706;28;20054;-86
2023/01/01 13:50:27;;;;;;;7.43;2.05;;;19.60;71.30;;;;;;6208149;28;20464;-82
2023/01/01 13:53:54;;;;;;;4.13;1.80;;;19.60;71.50;;;;;;6181659;28;20050;-82
2023/01/01 13:56:59;;;;;;;5.15;1.65;;;19.50;71.70;;;;;;6202249;28;20056;-84
2023/01/01 14:00:18;;;;;;;13.73;2.28;;;19.40;71.60;;;;;;6207403;28;20046;-83
2023/01/01 14:03:21;;;;;;;9.07;3.85;;;19.30;71.90;;;;;;6206977;28;20053;-84
2023/01/01 14:06:29;;;;;;;9.35;3.35;;;19.30;72.30;;;;;;6211310;28;20046;-86
2023/01/01 14:09:32;;;;;;;;;;;19.20;72.60;;;;;;6208799;28;20050;-87
2023/01/01 14:12:38;;;;;;;7.38;2.83;;;19.10;72.80;;;;;;6208367;28;19939;-85
2023/01/01 14:15:50;;;;;;;10.65;2.70;;;19.10;73.80;;;;;;6209277;28;20053;-87
2023/01/01 14:18:56;;;;;;;6.22;2.45;;;19.10;74.10;;;;;;6208307;28;20049;-85
2023/01/01 14:25:20;;;;;;;7.53;2.40;;;19.00;74.80;;;;;;6208077;28;20047;-86
2023/01/01 14:28:27;;;;;;;8.55;3.00;;;19.00;75.10;;;;;;6209301;28;20054;-85
2023/01/01 14:31:31;;;;;;;9.35;2.83;;;19.00;75.40;;;;;;6209545;28;20049;-84
2023/01/01 14:34:33;;;;;;;11.50;2.42;;;18.90;75.20;;;;;;6209837;28;20047;-84
2023/01/01 14:37:38;;;;;;;5.88;2.58;;;18.90;75.50;;;;;;6208286;28;20046;-84
2023/01/01 14:40:40;;;;;;;8.38;1.92;;;18.80;76.40;;;;;;6208181;28;20051;-86
2023/01/01 14:43:43;;;;;;;5.90;2.28;;;18.70;76.50;;;;;;6208424;28;20098;-86
2023/01/01 14:46:47;;;;;;;9.73;3.90;;;18.70;76.50;;;;;;6209702;28;20416;-84
2023/01/01 14:49:50;;;;;;;10.95;3.17;;;18.60;78.10;;;;;;6209515;28;20053;-84
2023/01/01 14:52:57;;;;;;;6.82;2.00;;;18.50;80.50;;;;;;6206964;28;20039;-86
2023/01/01 14:56:01;;;;;;;9.07;3.10;;;18.40;81.60;;;;;;6207677;28;20500;-85
2023/01/01 14:59:07;;;;;;;10.95;3.03;;;18.40;81.90;;;;;;6206684;28;20049;-85
2023/01/01 15:02:14;;;;;;;9.60;3.67;;;18.30;81.30;;;;;;6210926;28;20050;-86
2023/01/01 15:05:28;;;;;;;15.10;4.13;;;18.10;80.40;;;;;;6184898;28;20050;-80
2023/01/01 15:08:31;;;;;;;10.25;3.25;;;17.90;80.40;;;;;;6183343;28;20453;-83
2023/01/01 15:11:33;;;;;;;10.35;3.38;;;17.80;80.70;;;;;;6182365;28;20133;-85
2023/01/01 15:14:37;;;;;;;17.33;3.60;;;17.60;81.00;;;;;;6185369;28;20065;-84
2023/01/01 15:17:46;;;;;;;8.15;3.50;;;17.60;81.40;;;;;;6207682;28;20050;-86
2023/01/01 15:20:53;;;;;;;16.48;3.50;;;17.50;82.30;;;;;;6208173;28;20051;-86
2023/01/01 15:23:59;;;;;;;8.50;3.70;;;17.40;82.90;;;;;;6208165;28;20110;-84
2023/01/01 15:27:04;;;;;;;17.92;3.08;;;17.20;83.10;;;;;;6207481;28;20049;-84
2023/01/01 15:30:07;;;;;;;8.77;3.88;;;17.00;83.90;;;;;;6207844;28;20459;-85
2023/01/01 15:33:15;;;;;;;8.77;3.45;;;16.90;84.60;;;;;;6205756;28;20050;-84
2023/01/01 15:36:24;;;;;;;8.77;2.55;;;16.70;85.20;;;;;;6203790;28;20058;-85
2023/01/01 15:39:30;;;;;;;14.63;3.00;;;16.50;86.00;;;;;;6206588;28;20369;-84
2023/01/01 15:42:34;;;;;;;23.67;3.28;;;16.40;86.40;;;;;;6207843;28;20427;-84
2023/01/01 15:45:39;;;;;;;17.63;3.30;;;16.20;86.90;;;;;;6207161;28;20054;-83
2023/01/01 15:48:48;;;;;;;11.88;3.58;;;16.00;87.60;;;;;;6207006;28;20110;-84
2023/01/01 15:51:56;;;;;;;9.02;2.42;;;15.70;88.50;;;;;;6206746;28;20501;-85
2023/01/01 15:55:00;;;;;;;8.32;3.05;;;15.50;89.10;;;;;;6206600;28;20049;-83
2023/01/01 15:58:03;;;;;;;11.20;2.97;;;15.30;89.90;;;;;;6208902;28;20050;-84
2023/01/01 16:01:07;;;;;;;6.68;2.83;;;15.10;90.30;;;;;;6206833;28;20057;-82
2023/01/01 16:04:15;;;;;;;7.82;3.17;;;14.90;90.70;;;;;;6204143;28;20050;-85
2023/01/01 16:27:20;;;;;;;8.15;2.80;;;13.70;92.80;;;;;;6251606;28;20037;-84
2023/01/01 16:30:25;;;;;;;11.73;3.47;;;13.60;93.30;;;;;;6214901;28;20050;-85
2023/01/01 16:33:29;;;;;;;12.40;3.10;;;13.50;93.60;;;;;;6207068;28;20054;-85
2023/01/01 16:39:47;;;;;;;21.85;5.72;;;13.30;94.30;;;;;;6203987;28;20419;-86
2023/01/01 16:42:50;;;;;;;10.50;5.15;;;13.20;94.60;;;;;;6204959;28;20046;-84
2023/01/01 16:45:52;;;;;;;15.93;3.67;;;13.10;94.90;;;;;;6200891;28;20057;-84